Time;durP1;ratioP1;P1;durP2;ratioP2;P2;SDS_P1;SDS_P2;PMS_P1;PMS_P2;Temp;Humidity;BMP_temperature;BMP_pressure;BME280_temperature;BME280_humidity;BME280_pressure;Samples;Min_cycle;Max_cycle;Signal;HPM_P1;HPM_P2
2022/06/12 00:00:13;;;;;;;22.50;21.10;;;;;;;;;;5013326;28;20921;-79
2022/06/12 00:02:42;;;;;;;23.50;21.97;;;;;;;;;;5013302;28;20452;-80
2022/06/12 00:05:10;;;;;;;23.50;22.00;;;;;;;;;;5012971;28;20438;-79
2022/06/12 00:07:38;;;;;;;22.90;21.07;;;;;;;;;;5012863;28;20934;-79
2022/06/12 00:10:07;;;;;;;21.63;20.43;;;;;;;;;;5012928;28;20467;-79
2022/06/12 00:12:34;;;;;;;22.20;20.80;;;;;;;;;;5013246;28;20441;-80
2022/06/12 00:15:02;;;;;;;23.13;21.63;;;;;;;;;;5012781;28;20412;-79
2022/06/12 00:17:30;;;;;;;22.77;21.37;;;;;;;;;;5012910;28;20886;-79
2022/06/12 00:19:57;;;;;;;22.33;20.83;;;;;;;;;;5013047;28;20412;-78
2022/06/12 00:22:25;;;;;;;23.47;21.77;;;;;;;;;;5012948;28;20480;-79
2022/06/12 00:24:52;;;;;;;22.37;20.87;;;;;;;;;;5012839;28;20408;-78
2022/06/12 00:27:22;;;;;;;23.50;21.90;;;;;;;;;;5012854;28;20965;-78
2022/06/12 00:29:50;;;;;;;22.73;21.00;;;;;;;;;;5012915;28;20478;-79
2022/06/12 00:32:18;;;;;;;23.33;21.60;;;;;;;;;;5012724;28;20419;-79
2022/06/12 00:34:47;;;;;;;24.00;22.03;;;;;;;;;;5012649;28;20443;-80
2022/06/12 00:37:14;;;;;;;23.80;21.90;;;;;;;;;;5012491;28;20446;-78
2022/06/12 00:39:42;;;;;;;23.20;21.70;;;;;;;;;;5015254;28;20543;-78
2022/06/12 00:42:11;;;;;;;24.17;22.10;;;;;;;;;;5017017;28;20430;-79
2022/06/12 00:44:41;;;;;;;24.07;22.57;;;;;;;;;;5016596;28;20445;-78
2022/06/12 00:47:09;;;;;;;23.70;22.30;;;;;;;;;;5016737;28;20412;-79
2022/06/12 00:49:38;;;;;;;24.43;22.33;;;;;;;;;;5016697;28;20532;-79
2022/06/12 00:52:09;;;;;;;23.57;21.83;;;;;;;;;;5016375;28;20925;-79
2022/06/12 00:54:36;;;;;;;23.93;21.70;;;;;;;;;;5016380;28;20495;-79
2022/06/12 00:57:04;;;;;;;23.70;21.87;;;;;;;;;;5016666;28;20445;-78
2022/06/12 00:59:37;;;;;;;23.47;21.70;;;;;;;;;;5016289;28;21248;-78
2022/06/12 01:02:08;;;;;;;23.50;21.80;;;;;;;;;;5016511;28;20453;-79
2022/06/12 01:07:22;;;;;;;22.80;21.30;;;;;;;;;;5016140;28;20979;-79
2022/06/12 01:09:50;;;;;;;24.20;22.50;;;;;;;;;;5016115;28;20441;-78
2022/06/12 01:12:20;;;;;;;23.30;21.80;;;;;;;;;;5016449;28;20440;-79
2022/06/12 01:14:50;;;;;;;23.17;21.60;;;;;;;;;;5015948;28;20437;-78
2022/06/12 01:17:20;;;;;;;24.30;22.60;;;;;;;;;;4998586;28;20921;-79
2022/06/12 01:19:50;;;;;;;23.80;22.10;;;;;;;;;;5016254;28;20445;-78
2022/06/12 01:22:28;;;;;;;23.23;21.63;;;;;;;;;;5016047;28;20420;-79
2022/06/12 01:25:14;;;;;;;23.93;22.33;;;;;;;;;;5016244;28;20440;-79
2022/06/12 01:27:52;;;;;;;23.40;21.60;;;;;;;;;;5016089;28;20458;-79
2022/06/12 01:30:22;;;;;;;23.67;22.13;;;;;;;;;;5015990;28;20521;-79
2022/06/12 01:32:52;;;;;;;23.07;21.27;;;;;;;;;;5015699;28;20423;-79
2022/06/12 01:35:23;;;;;;;22.73;21.13;;;;;;;;;;5016086;28;20466;-79
2022/06/12 01:37:54;;;;;;;23.73;22.03;;;;;;;;;;5015502;28;20471;-79
2022/06/12 01:40:28;;;;;;;22.83;21.23;;;;;;;;;;5015576;28;20520;-79
2022/06/12 01:43:09;;;;;;;24.53;22.67;;;;;;;;;;5015818;28;20461;-79
2022/06/12 01:45:43;;;;;;;22.93;21.43;;;;;;;;;;5015527;28;20520;-79
2022/06/12 01:48:17;;;;;;;22.97;21.40;;;;;;;;;;5015438;28;20889;-79
2022/06/12 01:50:47;;;;;;;22.93;21.53;;;;;;;;;;5015179;28;20455;-79
2022/06/12 01:53:17;;;;;;;22.90;21.30;;;;;;;;;;5015360;28;20430;-79
2022/06/12 01:55:47;;;;;;;23.73;21.80;;;;;;;;;;5015151;28;20423;-79
2022/06/12 01:58:18;;;;;;;23.13;21.63;;;;;;;;;;5015392;28;20427;-79
2022/06/12 02:00:52;;;;;;;23.07;21.40;;;;;;;;;;5015431;28;20926;-79
2022/06/12 02:03:24;;;;;;;22.43;20.67;;;;;;;;;;5015403;28;20419;-79
2022/06/12 02:05:53;;;;;;;23.27;21.53;;;;;;;;;;5015336;28;20438;-79
2022/06/12 02:08:24;;;;;;;24.07;22.07;;;;;;;;;;5015319;28;20448;-79
2022/06/12 02:10:52;;;;;;;23.47;21.67;;;;;;;;;;5014824;28;20471;-79
2022/06/12 02:13:21;;;;;;;23.47;21.50;;;;;;;;;;5015125;28;20446;-79
2022/06/12 02:15:53;;;;;;;23.07;21.50;;;;;;;;;;5015191;28;20846;-79
2022/06/12 02:18:30;;;;;;;24.33;22.30;;;;;;;;;;5014930;28;20992;-79
2022/06/12 02:21:00;;;;;;;22.60;21.20;;;;;;;;;;5014816;28;20938;-79
2022/06/12 02:23:29;;;;;;;23.30;21.60;;;;;;;;;;5015036;28;20452;-79
2022/06/12 02:25:57;;;;;;;22.97;21.13;;;;;;;;;;5014981;28;20416;-78
2022/06/12 02:28:26;;;;;;;22.40;21.00;;;;;;;;;;5014641;28;20944;-79
2022/06/12 02:30:57;;;;;;;22.50;21.30;;;;;;;;;;5014607;28;20985;-79
2022/06/12 02:33:25;;;;;;;23.40;21.90;;;;;;;;;;5014739;28;20427;-79
2022/06/12 02:35:54;;;;;;;23.00;21.50;;;;;;;;;;5014551;28;20513;-78
2022/06/12 02:38:24;;;;;;;23.07;21.40;;;;;;;;;;5014469;28;20458;-79
2022/06/12 02:40:54;;;;;;;23.67;21.87;;;;;;;;;;5014473;28;20420;-79
2022/06/12 02:43:24;;;;;;;22.57;20.97;;;;;;;;;;5014475;28;20795;-80
2022/06/12 02:45:53;;;;;;;22.47;21.03;;;;;;;;;;5014317;28;20453;-79
2022/06/12 02:48:23;;;;;;;24.03;22.33;;;;;;;;;;5014529;28;20423;-79
2022/06/12 02:50:56;;;;;;;24.80;22.60;;;;;;;;;;5014541;28;20483;-79
2022/06/12 02:53:26;;;;;;;22.67;21.17;;;;;;;;;;5014648;28;20466;-79
2022/06/12 02:55:57;;;;;;;24.20;21.93;;;;;;;;;;5014631;28;20438;-79
2022/06/12 02:58:31;;;;;;;23.87;22.00;;;;;;;;;;5014435;28;20445;-79
2022/06/12 03:01:00;;;;;;;22.83;21.33;;;;;;;;;;5014092;28;20420;-79
2022/06/12 03:03:32;;;;;;;25.20;22.93;;;;;;;;;;5014076;28;20419;-79
2022/06/12 03:06:01;;;;;;;23.30;21.70;;;;;;;;;;5014233;28;20437;-79
2022/06/12 03:08:30;;;;;;;23.37;21.87;;;;;;;;;;5014150;28;20464;-79
2022/06/12 03:11:00;;;;;;;23.87;22.10;;;;;;;;;;5014108;28;20455;-79
2022/06/12 03:13:28;;;;;;;25.53;23.03;;;;;;;;;;5013981;28;20843;-79
2022/06/12 03:15:58;;;;;;;25.27;23.33;;;;;;;;;;5014250;28;20415;-79
2022/06/12 03:18:27;;;;;;;23.33;21.50;;;;;;;;;;5014161;28;20511;-79
2022/06/12 03:21:01;;;;;;;25.10;22.67;;;;;;;;;;5013720;28;20412;-79
2022/06/12 03:23:34;;;;;;;24.40;22.67;;;;;;;;;;5014156;28;20417;-79
2022/06/12 03:26:04;;;;;;;24.20;22.47;;;;;;;;;;5013617;28;20474;-79
2022/06/12 03:28:36;;;;;;;24.53;22.80;;;;;;;;;;5013861;28;21166;-79
2022/06/12 03:31:09;;;;;;;23.40;21.70;;;;;;;;;;5013632;28;20463;-79
2022/06/12 03:33:39;;;;;;;24.40;22.43;;;;;;;;;;5013406;28;20446;-79
2022/06/12 03:36:09;;;;;;;22.67;21.17;;;;;;;;;;5013536;28;20420;-79
2022/06/12 03:38:40;;;;;;;23.37;21.37;;;;;;;;;;5013596;28;20463;-84
2022/06/12 03:41:13;;;;;;;23.43;21.50;;;;;;;;;;4997125;28;20441;-83
2022/06/12 03:43:42;;;;;;;23.00;21.00;;;;;;;;;;5013933;28;20423;-83
2022/06/12 03:46:20;;;;;;;22.60;21.10;;;;;;;;;;5013685;28;20445;-79
2022/06/12 03:48:51;;;;;;;24.10;22.10;;;;;;;;;;4995108;28;20834;-79
2022/06/12 03:51:24;;;;;;;24.10;22.40;;;;;;;;;;5013168;28;20467;-84
2022/06/12 03:53:53;;;;;;;22.80;21.10;;;;;;;;;;5013993;28;20441;-84
2022/06/12 03:59:10;;;;;;;24.17;22.40;;;;;;;;;;5013798;28;20423;-83
2022/06/12 04:01:38;;;;;;;25.20;22.60;;;;;;;;;;5013692;28;20420;-83
2022/06/12 04:04:06;;;;;;;23.47;21.70;;;;;;;;;;5013669;28;20962;-84
2022/06/12 04:06:35;;;;;;;22.07;20.43;;;;;;;;;;5013655;28;20791;-84
2022/06/12 04:09:05;;;;;;;23.60;21.60;;;;;;;;;;5013983;28;20412;-84
2022/06/12 04:11:34;;;;;;;22.60;21.00;;;;;;;;;;5010563;28;20488;-83
2022/06/12 04:14:02;;;;;;;22.57;21.00;;;;;;;;;;5013725;28;20416;-83
2022/06/12 04:16:32;;;;;;;22.20;20.50;;;;;;;;;;5013617;28;20460;-84
2022/06/12 04:19:00;;;;;;;23.53;22.03;;;;;;;;;;5021901;28;20471;-77
2022/06/12 04:21:31;;;;;;;26.63;24.57;;;;;;;;;;5032220;28;20426;-77
2022/06/12 04:24:03;;;;;;;24.17;22.67;;;;;;;;;;5032719;28;20426;-77
2022/06/12 04:26:34;;;;;;;23.53;21.77;;;;;;;;;;5014851;28;20458;-79
2022/06/12 04:29:04;;;;;;;24.33;22.53;;;;;;;;;;5032793;28;20441;-76
2022/06/12 04:31:33;;;;;;;23.30;21.83;;;;;;;;;;5032742;28;20494;-75
2022/06/12 04:34:09;;;;;;;23.53;21.93;;;;;;;;;;5010662;28;20481;-84
2022/06/12 04:36:37;;;;;;;24.93;22.80;;;;;;;;;;5033679;28;20430;-86
2022/06/12 04:39:06;;;;;;;23.90;22.07;;;;;;;;;;5033512;28;20462;-82
2022/06/12 04:41:36;;;;;;;22.03;20.57;;;;;;;;;;5033102;28;20456;-83
2022/06/12 04:44:03;;;;;;;26.63;24.40;;;;;;;;;;5032610;28;20461;-82
2022/06/12 04:46:31;;;;;;;24.53;22.43;;;;;;;;;;5028952;28;20446;-84
2022/06/12 04:48:59;;;;;;;24.77;23.00;;;;;;;;;;5032337;28;20423;-81
2022/06/12 04:51:27;;;;;;;25.10;23.27;;;;;;;;;;5032449;28;20446;-82
2022/06/12 04:53:54;;;;;;;24.30;21.90;;;;;;;;;;5032687;28;20443;-85
2022/06/12 04:56:24;;;;;;;23.80;22.23;;;;;;;;;;5032675;28;20426;-75
2022/06/12 04:58:52;;;;;;;24.40;22.50;;;;;;;;;;5033197;28;20452;-85
2022/06/12 05:01:20;;;;;;;24.80;22.67;;;;;;;;;;5033302;28;20411;-82
2022/06/12 05:03:47;;;;;;;23.73;22.00;;;;;;;;;;5030483;28;20448;-79
2022/06/12 05:06:15;;;;;;;25.03;23.10;;;;;;;;;;5011969;28;20444;-78
2022/06/12 05:08:43;;;;;;;25.13;23.20;;;;;;;;;;5012386;28;20495;-78
2022/06/12 05:11:10;;;;;;;25.03;23.43;;;;;;;;;;5014818;28;20408;-83
2022/06/12 05:13:40;;;;;;;25.97;23.70;;;;;;;;;;5032922;28;20439;-92
2022/06/12 05:16:08;;;;;;;25.07;23.43;;;;;;;;;;5032536;28;20443;-87
2022/06/12 05:18:36;;;;;;;24.97;23.20;;;;;;;;;;5032538;28;20447;-77
2022/06/12 05:21:03;;;;;;;25.53;23.80;;;;;;;;;;5032010;28;20439;-77
2022/06/12 05:23:31;;;;;;;26.20;24.50;;;;;;;;;;5031933;28;20921;-76
2022/06/12 05:25:58;;;;;;;24.40;22.67;;;;;;;;;;5035057;28;20844;-77
2022/06/12 05:28:26;;;;;;;26.00;24.13;;;;;;;;;;5035608;28;20900;-75
2022/06/12 05:30:55;;;;;;;25.40;23.80;;;;;;;;;;5035845;28;20436;-76
2022/06/12 05:33:22;;;;;;;25.73;23.90;;;;;;;;;;5035603;28;20487;-76
2022/06/12 05:35:50;;;;;;;25.03;23.33;;;;;;;;;;5017981;28;20427;-76
2022/06/12 05:38:18;;;;;;;25.80;23.90;;;;;;;;;;5035253;28;20488;-76
2022/06/12 05:40:46;;;;;;;24.30;22.70;;;;;;;;;;5036142;28;20444;-79
2022/06/12 05:43:13;;;;;;;24.73;22.83;;;;;;;;;;5018684;28;20422;-81
2022/06/12 05:45:40;;;;;;;25.00;22.93;;;;;;;;;;5035608;28;20437;-81
2022/06/12 05:48:11;;;;;;;24.53;22.93;;;;;;;;;;5035649;28;20419;-81
2022/06/12 05:50:45;;;;;;;25.40;23.57;;;;;;;;;;5017934;28;20418;-80
2022/06/12 05:53:12;;;;;;;25.37;23.00;;;;;;;;;;5035032;28;20509;-80
2022/06/12 05:55:40;;;;;;;24.47;22.77;;;;;;;;;;5035171;28;20507;-80
2022/06/12 05:58:07;;;;;;;25.17;23.10;;;;;;;;;;5035521;28;20444;-93
2022/06/12 06:00:35;;;;;;;25.50;23.37;;;;;;;;;;5035608;28;20750;-82
2022/06/12 06:03:02;;;;;;;25.83;23.53;;;;;;;;;;5036660;28;20448;-84
2022/06/12 06:05:31;;;;;;;25.23;23.47;;;;;;;;;;5035581;28;20444;-83
2022/06/12 06:07:58;;;;;;;25.60;23.33;;;;;;;;;;5035412;28;20768;-88
2022/06/12 06:10:28;;;;;;;24.63;22.83;;;;;;;;;;5035154;28;20442;-88
2022/06/12 06:12:56;;;;;;;24.80;22.80;;;;;;;;;;5035184;28;20461;-82
2022/06/12 06:15:23;;;;;;;24.90;23.13;;;;;;;;;;5035424;28;20514;-81
2022/06/12 06:17:52;;;;;;;24.27;22.07;;;;;;;;;;5035163;28;20444;-81
2022/06/12 06:20:22;;;;;;;24.63;22.90;;;;;;;;;;5034570;28;20851;-82
2022/06/12 06:22:51;;;;;;;25.10;22.97;;;;;;;;;;5034941;28;20437;-81
2022/06/12 06:25:18;;;;;;;25.77;23.60;;;;;;;;;;5034430;28;20774;-82
2022/06/12 06:27:46;;;;;;;25.17;23.07;;;;;;;;;;5010242;28;20478;-81
2022/06/12 06:30:14;;;;;;;26.20;24.00;;;;;;;;;;4997576;28;20801;-82
2022/06/12 06:32:42;;;;;;;25.60;23.37;;;;;;;;;;5014523;28;20587;-81
2022/06/12 06:35:10;;;;;;;25.67;23.60;;;;;;;;;;5014866;28;20481;-81
2022/06/12 06:37:37;;;;;;;25.27;23.00;;;;;;;;;;5013571;28;20471;-81
2022/06/12 06:40:08;;;;;;;25.20;22.83;;;;;;;;;;5014615;28;20476;-82
2022/06/12 06:42:35;;;;;;;25.73;23.13;;;;;;;;;;5014552;28;20462;-82
2022/06/12 06:47:48;;;;;;;24.77;22.97;;;;;;;;;;5014671;28;20410;-82
2022/06/12 06:50:16;;;;;;;25.10;23.07;;;;;;;;;;5014700;28;20882;-82
2022/06/12 06:52:44;;;;;;;26.50;24.10;;;;;;;;;;5014647;28;20451;-82
2022/06/12 06:55:13;;;;;;;26.20;23.43;;;;;;;;;;5014556;28;20449;-82
2022/06/12 06:57:41;;;;;;;24.33;22.37;;;;;;;;;;5014431;28;20846;-81
2022/06/12 07:00:09;;;;;;;24.80;22.70;;;;;;;;;;4996722;28;20931;-82
2022/06/12 07:02:38;;;;;;;25.23;21.60;;;;;;;;;;5014309;28;20444;-82
2022/06/12 07:05:06;;;;;;;22.70;20.90;;;;;;;;;;5027483;28;20426;-82
2022/06/12 07:07:34;;;;;;;23.97;21.90;;;;;;;;;;5034184;28;20436;-82
2022/06/12 07:10:02;;;;;;;24.17;22.27;;;;;;;;;;5033825;28;21204;-82
2022/06/12 07:12:31;;;;;;;25.13;22.77;;;;;;;;;;5033858;28;20458;-82
2022/06/12 07:14:58;;;;;;;23.47;21.57;;;;;;;;;;5033954;28;20962;-81
2022/06/12 07:17:25;;;;;;;24.20;22.40;;;;;;;;;;5034017;28;20421;-82
2022/06/12 07:19:53;;;;;;;25.37;22.50;;;;;;;;;;5033870;28;20469;-82
2022/06/12 07:22:21;;;;;;;23.83;21.77;;;;;;;;;;5033737;28;20414;-82
2022/06/12 07:24:48;;;;;;;24.57;22.53;;;;;;;;;;5033443;28;20427;-82
2022/06/12 07:27:15;;;;;;;25.17;23.03;;;;;;;;;;5033424;28;20455;-82
2022/06/12 07:29:44;;;;;;;25.47;23.03;;;;;;;;;;5033643;28;20460;-82
2022/06/12 07:32:12;;;;;;;24.83;22.53;;;;;;;;;;5033586;28;20784;-82
2022/06/12 07:34:39;;;;;;;24.57;22.77;;;;;;;;;;5033751;28;20471;-82
2022/06/12 07:37:07;;;;;;;24.37;22.40;;;;;;;;;;5015685;28;20477;-82
2022/06/12 07:39:35;;;;;;;25.03;22.47;;;;;;;;;;5033015;28;20455;-82
2022/06/12 07:42:04;;;;;;;23.33;21.63;;;;;;;;;;5033328;28;20449;-82
2022/06/12 07:44:32;;;;;;;24.20;22.40;;;;;;;;;;5033125;28;20448;-83
2022/06/12 07:47:02;;;;;;;24.30;22.00;;;;;;;;;;5033307;28;20815;-81
2022/06/12 07:49:30;;;;;;;23.30;21.60;;;;;;;;;;5033054;28;20414;-82
2022/06/12 07:51:58;;;;;;;22.77;21.00;;;;;;;;;;5033079;28;20430;-80
2022/06/12 07:54:26;;;;;;;23.53;21.90;;;;;;;;;;5032921;28;20422;-81
2022/06/12 07:56:54;;;;;;;23.40;21.40;;;;;;;;;;5033373;28;20447;-82
2022/06/12 07:59:23;;;;;;;23.40;21.60;;;;;;;;;;5015472;28;20904;-81
2022/06/12 08:01:52;;;;;;;23.93;22.00;;;;;;;;;;5033179;28;20490;-81
2022/06/12 08:04:22;;;;;;;23.13;21.33;;;;;;;;;;5025934;28;20449;-81
2022/06/12 08:06:49;;;;;;;24.33;22.47;;;;;;;;;;5013044;28;20423;-82
2022/06/12 08:09:17;;;;;;;23.60;21.57;;;;;;;;;;5013281;28;20769;-83
2022/06/12 08:11:45;;;;;;;23.23;21.40;;;;;;;;;;5013119;28;20419;-81
2022/06/12 08:14:13;;;;;;;24.43;22.07;;;;;;;;;;5013192;28;20493;-76
2022/06/12 08:16:41;;;;;;;23.40;21.40;;;;;;;;;;5013383;28;20440;-76
2022/06/12 08:20:24;;;;;;;24.57;22.37;;;;;;;;;;5013085;28;20415;-76
2022/06/12 08:21:58;;;;;;;25.13;23.13;;;;;;;;;;5028974;28;20429;-78
2022/06/12 08:24:25;;;;;;;24.97;23.03;;;;;;;;;;5032535;28;20451;-77
2022/06/12 08:26:52;;;;;;;23.63;21.83;;;;;;;;;;5033030;28;20430;-77
2022/06/12 08:29:20;;;;;;;25.40;23.57;;;;;;;;;;5032758;28;20415;-77
2022/06/12 08:31:48;;;;;;;24.97;22.77;;;;;;;;;;5032761;28;20751;-77
2022/06/12 08:34:22;;;;;;;25.40;22.80;;;;;;;;;;5032203;28;20507;-78
2022/06/12 08:36:50;;;;;;;23.70;21.80;;;;;;;;;;5032619;28;20448;-77
2022/06/12 08:39:19;;;;;;;22.97;21.37;;;;;;;;;;5031109;28;20494;-76
2022/06/12 08:41:49;;;;;;;24.30;22.13;;;;;;;;;;5032225;28;20419;-76
2022/06/12 08:44:18;;;;;;;24.80;23.00;;;;;;;;;;5032343;28;20403;-76
2022/06/12 08:46:49;;;;;;;24.87;22.90;;;;;;;;;;5032218;28;20448;-77
2022/06/12 08:49:18;;;;;;;23.27;21.70;;;;;;;;;;5032244;28;20873;-81
2022/06/12 08:51:48;;;;;;;24.03;22.43;;;;;;;;;;5032244;28;20415;-77
2022/06/12 08:54:19;;;;;;;24.97;22.90;;;;;;;;;;5032111;28;20483;-76
2022/06/12 08:56:50;;;;;;;23.87;22.10;;;;;;;;;;5032577;28;20448;-77
2022/06/12 08:59:20;;;;;;;22.67;21.17;;;;;;;;;;5032838;28;20436;-76
2022/06/12 09:01:47;;;;;;;22.87;21.30;;;;;;;;;;5036284;28;20411;-76
2022/06/12 09:04:16;;;;;;;22.50;20.83;;;;;;;;;;5036424;28;20411;-76
2022/06/12 09:06:46;;;;;;;22.57;21.03;;;;;;;;;;5033906;28;20438;-76
2022/06/12 09:09:18;;;;;;;22.40;20.80;;;;;;;;;;5035086;28;20864;-81
2022/06/12 09:11:48;;;;;;;23.07;21.17;;;;;;;;;;5019123;28;20440;-77
2022/06/12 09:14:24;;;;;;;22.03;20.50;;;;;;;;;;5036071;28;20476;-74
2022/06/12 09:16:58;;;;;;;21.87;20.57;;;;;;;;;;5035778;28;20425;-75
2022/06/12 09:19:31;;;;;;;22.93;21.30;;;;;;;;;;5035450;28;20458;-77
2022/06/12 09:22:05;;;;;;;22.73;21.33;;;;;;;;;;5035923;28;20440;-74
2022/06/12 09:24:39;;;;;;;22.13;20.50;;;;;;;;;;5025856;28;20448;-77
2022/06/12 09:27:10;;;;;;;22.80;21.20;;;;;;;;;;5015849;28;20484;-73
2022/06/12 09:29:45;;;;;;;22.90;21.40;;;;;;;;;;5016857;28;20921;-76
2022/06/12 09:32:16;;;;;;;21.10;19.67;;;;;;;;;;5029060;28;20431;-78
2022/06/12 09:34:46;;;;;;;23.17;21.67;;;;;;;;;;5030100;28;21033;-79
2022/06/12 09:40:05;;;;;;;24.00;22.40;;;;;;;;;;5030360;28;20478;-79
2022/06/12 09:42:38;;;;;;;23.57;22.27;;;;;;;;;;5030257;28;20488;-79
2022/06/12 09:45:11;;;;;;;22.77;21.37;;;;;;;;;;5030314;28;20463;-78
2022/06/12 09:47:43;;;;;;;24.00;22.50;;;;;;;;;;5030484;28;20534;-79
2022/06/12 09:50:12;;;;;;;24.10;22.60;;;;;;;;;;5029902;28;20960;-79
2022/06/12 09:52:50;;;;;;;24.87;22.97;;;;;;;;;;5030159;28;20911;-78
2022/06/12 09:55:20;;;;;;;23.07;21.27;;;;;;;;;;5029963;28;20495;-79
2022/06/12 09:57:53;;;;;;;22.87;21.00;;;;;;;;;;5012149;28;20460;-79
2022/06/12 10:00:23;;;;;;;23.10;21.40;;;;;;;;;;5029488;28;20423;-79
2022/06/12 10:02:54;;;;;;;23.37;21.77;;;;;;;;;;5029555;28;20424;-75
2022/06/12 10:05:24;;;;;;;22.93;21.23;;;;;;;;;;5029270;28;20455;-73
2022/06/12 10:07:54;;;;;;;22.67;21.07;;;;;;;;;;5030112;28;20456;-77
2022/06/12 10:10:25;;;;;;;22.57;21.17;;;;;;;;;;5029869;28;20459;-76
2022/06/12 10:12:55;;;;;;;23.33;21.63;;;;;;;;;;5029269;28;20460;-82
2022/06/12 10:15:28;;;;;;;23.17;21.57;;;;;;;;;;5012170;28;20451;-80
2022/06/12 10:17:59;;;;;;;23.50;21.50;;;;;;;;;;5029642;28;20808;-80
2022/06/12 10:20:29;;;;;;;22.33;20.70;;;;;;;;;;5029486;28;20809;-73
2022/06/12 10:22:57;;;;;;;23.43;21.93;;;;;;;;;;5029132;28;20464;-73
2022/06/12 10:25:27;;;;;;;22.77;21.07;;;;;;;;;;5030167;28;20460;-77
2022/06/12 10:27:56;;;;;;;22.30;20.73;;;;;;;;;;5029885;28;20551;-79
2022/06/12 10:30:27;;;;;;;22.73;21.23;;;;;;;;;;5029325;28;20429;-77
2022/06/12 10:32:55;;;;;;;22.30;20.80;;;;;;;;;;5029180;28;20456;-77
2022/06/12 10:35:24;;;;;;;23.67;21.70;;;;;;;;;;5029183;28;20772;-77
2022/06/12 10:37:52;;;;;;;22.60;21.00;;;;;;;;;;5029354;28;20487;-78
2022/06/12 10:40:22;;;;;;;22.73;21.10;;;;;;;;;;5028856;28;20419;-78
2022/06/12 10:42:51;;;;;;;22.63;21.03;;;;;;;;;;5029712;28;20461;-78
2022/06/12 10:45:21;;;;;;;23.23;21.63;;;;;;;;;;5029035;28;20451;-78
2022/06/12 10:47:50;;;;;;;22.37;20.97;;;;;;;;;;5029212;28;21021;-75
2022/06/12 10:50:20;;;;;;;22.90;21.40;;;;;;;;;;5029047;28;20507;-77
2022/06/12 10:52:55;;;;;;;22.27;20.87;;;;;;;;;;5029352;28;20455;-77
2022/06/12 10:55:27;;;;;;;22.80;21.30;;;;;;;;;;5028532;28;20959;-77
2022/06/12 10:58:01;;;;;;;22.40;21.00;;;;;;;;;;5028794;28;20466;-83
2022/06/12 11:00:31;;;;;;;21.77;20.37;;;;;;;;;;5028780;28;20418;-80
2022/06/12 11:03:06;;;;;;;22.00;20.60;;;;;;;;;;5028969;28;20528;-75
2022/06/12 11:05:48;;;;;;;23.03;21.60;;;;;;;;;;5028703;28;20469;-78
2022/06/12 11:08:22;;;;;;;23.67;22.10;;;;;;;;;;5028761;28;21219;-80
2022/06/12 11:10:52;;;;;;;23.40;21.63;;;;;;;;;;5028608;28;20426;-79
2022/06/12 11:13:25;;;;;;;23.30;21.70;;;;;;;;;;5029024;28;20472;-78
2022/06/12 11:16:12;;;;;;;24.23;22.60;;;;;;;;;;5029370;28;20466;-78
2022/06/12 11:18:47;;;;;;;23.33;21.83;;;;;;;;;;5028343;28;20930;-79
2022/06/12 11:21:26;;;;;;;22.77;20.93;;;;;;;;;;5028208;28;20423;-79
2022/06/12 11:24:04;;;;;;;23.40;21.90;;;;;;;;;;5028278;28;20435;-78
2022/06/12 11:26:39;;;;;;;22.27;20.57;;;;;;;;;;5028903;28;20451;-79
2022/06/12 11:29:17;;;;;;;23.23;21.70;;;;;;;;;;5028468;28;20471;-78
2022/06/12 11:31:51;;;;;;;22.83;21.33;;;;;;;;;;5028379;28;20422;-78
2022/06/12 11:34:34;;;;;;;23.53;21.73;;;;;;;;;;5028323;28;20507;-79
2022/06/12 11:37:10;;;;;;;23.37;21.60;;;;;;;;;;5027859;28;20925;-78
2022/06/12 11:39:42;;;;;;;22.70;21.40;;;;;;;;;;5028073;28;20491;-78
2022/06/12 11:42:36;;;;;;;24.13;21.67;;;;;;;;;;5029000;28;20450;-78
2022/06/12 11:45:13;;;;;;;23.03;21.50;;;;;;;;;;4940072;29;20509;-78
2022/06/12 11:47:48;;;;;;;22.00;20.67;;;;;;;;;;4939499;29;20985;-79
2022/06/12 11:50:20;;;;;;;22.93;21.53;;;;;;;;;;4940027;29;20513;-78
2022/06/12 11:52:57;;;;;;;23.13;21.70;;;;;;;;;;4939297;29;20463;-79
2022/06/12 11:55:29;;;;;;;22.93;21.23;;;;;;;;;;4940020;29;20495;-78
2022/06/12 11:58:08;;;;;;;23.40;21.90;;;;;;;;;;4939569;29;20827;-78
2022/06/12 12:00:40;;;;;;;23.00;21.40;;;;;;;;;;4939529;29;20542;-78
2022/06/12 12:03:23;;;;;;;22.83;21.40;;;;;;;;;;4939511;29;20561;-79
2022/06/12 12:05:54;;;;;;;23.60;22.00;;;;;;;;;;4939703;29;20468;-78
2022/06/12 12:08:33;;;;;;;22.90;21.43;;;;;;;;;;4939058;29;20456;-77
2022/06/12 12:11:03;;;;;;;23.63;22.03;;;;;;;;;;4940569;29;20559;-78
2022/06/12 12:13:33;;;;;;;23.00;21.60;;;;;;;;;;4939843;29;20455;-78
2022/06/12 12:16:02;;;;;;;23.80;22.10;;;;;;;;;;4939137;29;20834;-79
2022/06/12 12:18:36;;;;;;;23.93;22.33;;;;;;;;;;4939577;29;20930;-78
2022/06/12 12:21:04;;;;;;;24.30;22.50;;;;;;;;;;4991060;28;20467;-78
2022/06/12 12:23:38;;;;;;;23.90;22.30;;;;;;;;;;5027787;28;20448;-78
2022/06/12 12:26:09;;;;;;;23.63;22.13;;;;;;;;;;5027548;28;20523;-79
2022/06/12 12:28:39;;;;;;;23.37;21.57;;;;;;;;;;5027862;28;20832;-79
2022/06/12 12:31:08;;;;;;;23.43;21.90;;;;;;;;;;5028540;28;20438;-78
2022/06/12 12:33:36;;;;;;;22.97;21.50;;;;;;;;;;5027057;28;20505;-79
2022/06/12 12:41:42;;;;;;;22.93;21.50;;;;;;;;;;5031443;28;20439;-79
2022/06/12 12:44:10;;;;;;;23.80;22.30;;;;;;;;;;5031284;28;20425;-79
2022/06/12 12:46:44;;;;;;;22.60;21.20;;;;;;;;;;5031763;28;20538;-78
2022/06/12 12:49:21;;;;;;;24.10;22.60;;;;;;;;;;5031599;28;20456;-79
2022/06/12 12:51:48;;;;;;;22.27;20.87;;;;;;;;;;5031727;28;20459;-79
2022/06/12 12:54:18;;;;;;;22.53;21.07;;;;;;;;;;5030958;28;20462;-79
2022/06/12 12:56:53;;;;;;;23.43;21.63;;;;;;;;;;5031115;28;20466;-78
2022/06/12 12:59:20;;;;;;;22.90;21.50;;;;;;;;;;5031059;28;20785;-78
2022/06/12 13:01:49;;;;;;;23.80;22.20;;;;;;;;;;5031405;28;20517;-79
2022/06/12 13:04:17;;;;;;;23.87;22.33;;;;;;;;;;5031597;28;20459;-78
2022/06/12 13:06:53;;;;;;;23.93;22.20;;;;;;;;;;5031198;28;20463;-79
2022/06/12 13:09:41;;;;;;;23.30;21.40;;;;;;;;;;5030966;28;20433;-78
2022/06/12 13:12:17;;;;;;;22.77;21.27;;;;;;;;;;5025260;28;20482;-78
2022/06/12 13:15:00;;;;;;;21.57;20.20;;;;;;;;;;5030942;28;20557;-78
2022/06/12 13:17:35;;;;;;;22.67;21.17;;;;;;;;;;5031501;28;20457;-78
2022/06/12 13:20:14;;;;;;;22.73;21.13;;;;;;;;;;5030906;28;20426;-78
2022/06/12 13:22:51;;;;;;;22.30;20.80;;;;;;;;;;5030543;28;20509;-78
2022/06/12 13:25:20;;;;;;;22.97;21.13;;;;;;;;;;5031008;28;20448;-78
2022/06/12 13:27:50;;;;;;;22.30;20.90;;;;;;;;;;5030936;28;20454;-80
2022/06/12 13:30:20;;;;;;;23.47;21.73;;;;;;;;;;5030795;28;20448;-79
2022/06/12 13:32:47;;;;;;;23.07;21.57;;;;;;;;;;5030849;28;20466;-78
2022/06/12 13:35:20;;;;;;;22.10;20.73;;;;;;;;;;5030511;28;20463;-78
2022/06/12 13:37:49;;;;;;;21.60;20.20;;;;;;;;;;5030571;28;20470;-78
2022/06/12 13:40:23;;;;;;;23.97;22.47;;;;;;;;;;5030447;28;20915;-79
2022/06/12 13:42:53;;;;;;;23.10;21.70;;;;;;;;;;5030371;28;20425;-78
2022/06/12 13:45:23;;;;;;;22.30;20.83;;;;;;;;;;5029525;28;20940;-78
2022/06/12 13:47:50;;;;;;;22.50;21.07;;;;;;;;;;5030375;28;20435;-78
2022/06/12 13:50:21;;;;;;;22.60;21.10;;;;;;;;;;5030670;28;20461;-79
2022/06/12 13:52:51;;;;;;;23.67;21.87;;;;;;;;;;5030544;28;20436;-78
2022/06/12 13:55:22;;;;;;;22.60;20.90;;;;;;;;;;5030432;28;20462;-78
2022/06/12 13:57:52;;;;;;;22.87;21.43;;;;;;;;;;5030388;28;20460;-79
2022/06/12 14:00:24;;;;;;;23.60;21.80;;;;;;;;;;5029914;28;20451;-79
2022/06/12 14:02:52;;;;;;;23.80;22.13;;;;;;;;;;5029978;28;20439;-79
2022/06/12 14:05:21;;;;;;;23.10;21.70;;;;;;;;;;5030203;28;20427;-78
2022/06/12 14:07:48;;;;;;;23.03;21.40;;;;;;;;;;5030265;28;20457;-78
2022/06/12 14:10:18;;;;;;;22.63;21.10;;;;;;;;;;5029913;28;20415;-78
2022/06/12 14:12:45;;;;;;;23.77;22.07;;;;;;;;;;5030467;28;20426;-79
2022/06/12 14:15:28;;;;;;;23.30;21.60;;;;;;;;;;5030089;28;20499;-84
2022/06/12 14:17:56;;;;;;;23.33;21.87;;;;;;;;;;5030584;28;20427;-84
2022/06/12 14:20:25;;;;;;;22.50;20.90;;;;;;;;;;5030606;28;20514;-82
2022/06/12 14:22:54;;;;;;;22.63;21.10;;;;;;;;;;5029771;28;20437;-81
2022/06/12 14:25:24;;;;;;;22.97;21.30;;;;;;;;;;5030824;28;20444;-83
2022/06/12 14:27:56;;;;;;;22.50;21.00;;;;;;;;;;5029032;28;20452;-83
2022/06/12 14:30:39;;;;;;;22.70;21.30;;;;;;;;;;5030406;28;20798;-83
2022/06/12 14:33:21;;;;;;;24.00;22.30;;;;;;;;;;5031551;28;20474;-83
2022/06/12 14:35:49;;;;;;;22.90;21.43;;;;;;;;;;5027749;28;20495;-83
2022/06/12 14:38:19;;;;;;;23.87;22.30;;;;;;;;;;5030098;28;20488;-84
2022/06/12 14:40:47;;;;;;;23.57;22.00;;;;;;;;;;5029943;28;20419;-82
2022/06/12 14:43:17;;;;;;;24.50;22.60;;;;;;;;;;5030321;28;20431;-82
2022/06/12 14:45:47;;;;;;;22.70;21.30;;;;;;;;;;5031254;28;20453;-83
2022/06/12 14:48:16;;;;;;;24.53;22.77;;;;;;;;;;5030189;28;20427;-83
2022/06/12 14:50:43;;;;;;;24.73;23.10;;;;;;;;;;5030258;28;20430;-83